createdAt,value
2018-01-18T00:01:49.625Z,75.31
2018-01-18T00:04:17.147Z,75.17
2018-01-18T00:06:44.674Z,74.50
2018-01-18T00:09:12.206Z,74.74
2018-01-18T00:11:39.790Z,74.75
2018-01-18T00:14:08.216Z,75.47
2018-01-18T00:16:35.746Z,75.72
2018-01-18T00:19:03.309Z,75.62
2018-01-18T00:21:30.910Z,77.01
2018-01-18T00:23:58.434Z,78.39
2018-01-18T00:26:26.026Z,79.79
2018-01-18T00:28:53.555Z,79.82
2018-01-18T00:31:21.113Z,80.13
2018-01-18T00:33:48.698Z,80.45
2018-01-18T00:36:16.274Z,79.89
2018-01-18T00:38:43.797Z,80.00
2018-01-18T00:41:11.322Z,78.13
2018-01-18T00:43:38.858Z,78.35
2018-01-18T00:46:06.381Z,77.94
2018-01-18T00:48:33.917Z,76.71
2018-01-18T00:51:01.499Z,76.45
2018-01-18T00:53:29.126Z,75.28
2018-01-18T00:55:56.653Z,75.71
2018-01-18T00:58:24.173Z,75.15
2018-01-18T01:00:51.711Z,75.36
2018-01-18T01:03:19.234Z,75.26
2018-01-18T01:05:46.765Z,74.88
2018-01-18T01:08:14.358Z,75.04
2018-01-18T01:10:41.925Z,75.45
2018-01-18T01:13:09.516Z,75.57
2018-01-18T01:15:37.094Z,75.87
2018-01-18T01:18:04.634Z,75.51
2018-01-18T01:20:32.218Z,75.48
2018-01-18T01:22:59.750Z,75.88
2018-01-18T01:25:27.275Z,74.93
2018-01-18T01:27:54.874Z,75.37
2018-01-18T01:30:22.459Z,75.44
2018-01-18T01:32:49.984Z,75.03
2018-01-18T01:35:17.517Z,75.23
2018-01-18T01:37:45.099Z,75.52
2018-01-18T01:40:12.634Z,75.25
2018-01-18T01:42:40.190Z,75.45
2018-01-18T01:45:07.789Z,75.55
2018-01-18T01:47:35.388Z,75.22
2018-01-18T01:50:02.918Z,75.80
2018-01-18T01:52:30.453Z,76.76
2018-01-18T01:54:58.014Z,77.23
2018-01-18T01:57:25.550Z,77.49
2018-01-18T01:59:53.074Z,78.31
2018-01-18T02:02:20.590Z,78.61
2018-01-18T02:04:48.122Z,78.80
2018-01-18T02:07:15.650Z,78.80
2018-01-18T02:09:43.192Z,78.63
2018-01-18T02:12:10.777Z,78.60
2018-01-18T02:14:38.382Z,78.40
2018-01-18T02:17:05.967Z,78.35
2018-01-18T02:19:33.508Z,78.16
2018-01-18T02:22:01.046Z,78.41
2018-01-18T02:24:28.585Z,77.94
2018-01-18T02:26:56.172Z,77.50
2018-01-18T02:29:23.686Z,77.96
2018-01-18T02:31:51.323Z,77.29
2018-01-18T02:34:18.850Z,77.51
2018-01-18T02:36:46.381Z,77.46
2018-01-18T02:39:13.975Z,77.41
2018-01-18T02:41:41.510Z,77.79
2018-01-18T02:44:09.064Z,77.78
2018-01-18T02:46:36.658Z,77.77
2018-01-18T02:49:04.274Z,77.31
2018-01-18T02:51:31.797Z,77.66
2018-01-18T02:53:59.382Z,78.26
2018-01-18T02:56:26.977Z,78.17
2018-01-18T02:58:54.599Z,77.87
2018-01-18T03:01:22.194Z,77.79
2018-01-18T03:03:49.783Z,77.51
2018-01-18T03:06:17.356Z,77.25
2018-01-18T03:08:44.942Z,77.40
2018-01-18T03:11:12.466Z,77.42
2018-01-18T03:13:40.007Z,77.34
2018-01-18T03:16:07.539Z,76.96
2018-01-18T03:18:35.081Z,77.52
2018-01-18T03:21:02.612Z,76.84
2018-01-18T03:23:30.242Z,76.66
2018-01-18T03:25:57.767Z,76.54
2018-01-18T03:28:25.351Z,76.38
2018-01-18T03:30:52.943Z,75.95
2018-01-18T03:33:20.465Z,76.45
2018-01-18T03:35:48.003Z,76.54
2018-01-18T03:38:15.586Z,77.28
2018-01-18T03:40:43.158Z,77.90
2018-01-18T03:43:10.686Z,78.05
2018-01-18T03:45:38.209Z,77.69
2018-01-18T03:48:05.746Z,77.50
2018-01-18T03:50:33.269Z,77.95
2018-01-18T03:53:00.802Z,77.70
2018-01-18T03:55:28.330Z,78.49
2018-01-18T03:57:55.974Z,78.64
2018-01-18T04:00:23.511Z,78.47
2018-01-18T04:02:51.033Z,78.98
2018-01-18T04:05:18.626Z,79.63
2018-01-18T04:07:46.154Z,79.72
2018-01-18T04:10:13.749Z,79.95
2018-01-18T04:12:41.282Z,80.43
2018-01-18T04:15:08.865Z,80.22
2018-01-18T04:17:36.386Z,81.25
2018-01-18T04:20:03.922Z,80.80
2018-01-18T04:22:31.514Z,81.04
2018-01-18T04:24:59.098Z,81.49
2018-01-18T04:27:26.690Z,81.95
2018-01-18T04:29:54.210Z,82.49
2018-01-18T04:32:21.736Z,83.29
2018-01-18T04:34:49.326Z,83.99
2018-01-18T04:37:16.907Z,84.81
2018-01-18T04:39:44.567Z,84.86
2018-01-18T04:42:12.094Z,85.18
2018-01-18T04:44:39.621Z,85.95
2018-01-18T04:47:07.153Z,86.14
2018-01-18T04:49:34.686Z,86.44
2018-01-18T04:52:02.225Z,87.04
2018-01-18T04:54:29.754Z,87.42
2018-01-18T04:56:57.327Z,88.34
2018-01-18T04:59:24.921Z,88.82
2018-01-18T05:01:52.441Z,89.02
2018-01-18T05:04:20.035Z,89.38
2018-01-18T05:06:47.562Z,89.96
2018-01-18T05:09:15.158Z,90.57
2018-01-18T05:11:42.690Z,90.98
2018-01-18T05:14:10.316Z,91.26
2018-01-18T05:16:37.906Z,91.48
2018-01-18T05:19:05.495Z,91.48
2018-01-18T05:21:33.031Z,91.52
2018-01-18T05:24:00.562Z,91.62
2018-01-18T05:26:28.167Z,91.37
2018-01-18T05:28:55.698Z,91.48
2018-01-18T05:31:23.222Z,91.23
2018-01-18T05:33:50.758Z,91.24
2018-01-18T05:36:18.286Z,91.23
2018-01-18T05:38:45.878Z,91.16
2018-01-18T05:41:13.413Z,90.87
2018-01-18T05:43:41.052Z,90.92
2018-01-18T05:46:08.584Z,90.95
2018-01-18T05:48:36.174Z,91.11
2018-01-18T05:51:03.714Z,91.20
2018-01-18T05:53:31.313Z,90.93
2018-01-18T05:55:58.907Z,91.00
2018-01-18T05:58:26.438Z,90.99
2018-01-18T06:00:54.076Z,90.99
2018-01-18T06:03:21.634Z,91.11
2018-01-18T06:05:49.222Z,90.90
2018-01-18T06:08:16.753Z,90.64
2018-01-18T06:10:44.274Z,90.60
2018-01-18T06:13:11.879Z,90.69
2018-01-18T06:15:39.410Z,90.89
2018-01-18T06:18:07.050Z,90.75
2018-01-18T06:20:34.579Z,90.62
2018-01-18T06:23:02.111Z,90.15
2018-01-18T06:25:29.645Z,89.87
2018-01-18T06:27:57.231Z,89.86
2018-01-18T06:30:24.765Z,89.42
2018-01-18T06:32:52.290Z,88.76
2018-01-18T06:35:19.921Z,88.51
2018-01-18T06:37:47.450Z,87.79
2018-01-18T06:40:15.048Z,87.62
2018-01-18T06:42:42.590Z,87.68
2018-01-18T06:45:10.122Z,87.90
2018-01-18T06:47:37.662Z,87.79
2018-01-18T06:50:05.266Z,87.54
2018-01-18T06:52:32.837Z,87.74
2018-01-18T06:55:00.362Z,87.54
2018-01-18T06:57:27.894Z,88.01
2018-01-18T06:59:55.552Z,87.98
2018-01-18T07:02:23.086Z,87.84
2018-01-18T07:04:50.631Z,88.48
2018-01-18T07:07:18.162Z,88.32
2018-01-18T07:09:45.931Z,88.24
2018-01-18T07:12:13.462Z,88.34
2018-01-18T07:14:40.990Z,87.64
2018-01-18T07:17:08.579Z,86.67
2018-01-18T07:19:36.163Z,87.08
2018-01-18T07:22:03.705Z,86.18
2018-01-18T07:24:31.238Z,86.03
2018-01-18T07:26:58.818Z,86.13
2018-01-18T07:29:26.406Z,85.93
2018-01-18T07:31:53.994Z,85.95
2018-01-18T07:34:21.527Z,84.81
2018-01-18T07:36:49.054Z,84.47
2018-01-18T07:39:16.642Z,84.93
2018-01-18T07:41:44.161Z,84.91
2018-01-18T07:44:11.738Z,83.89
2018-01-18T07:46:39.322Z,83.90
2018-01-18T07:49:06.850Z,83.92
2018-01-18T07:51:34.445Z,82.86
2018-01-18T07:54:02.031Z,81.50
2018-01-18T07:56:29.570Z,81.08
2018-01-18T07:58:57.098Z,81.14
2018-01-18T08:01:24.674Z,81.15
2018-01-18T08:03:57.883Z,79.72
2018-01-18T08:06:25.515Z,80.12
2018-01-18T08:08:53.102Z,79.31
2018-01-18T08:11:20.629Z,79.07
2018-01-18T08:13:48.162Z,78.26
2018-01-18T08:16:15.685Z,78.67
2018-01-18T08:18:43.278Z,77.96
2018-01-18T08:21:10.858Z,77.19
2018-01-18T08:23:38.434Z,77.83
2018-01-18T08:26:06.018Z,76.48
2018-01-18T08:28:33.610Z,76.70
2018-01-18T08:31:01.154Z,76.82
2018-01-18T08:33:28.770Z,75.78
2018-01-18T08:35:56.311Z,75.43
2018-01-18T08:38:23.851Z,75.03
2018-01-18T08:40:51.425Z,75.21
2018-01-18T08:43:18.953Z,75.35
2018-01-18T08:45:46.482Z,74.14
2018-01-18T08:48:14.022Z,73.48
2018-01-18T08:50:41.618Z,75.09
2018-01-18T08:53:09.161Z,74.57
2018-01-18T08:55:36.755Z,74.56
2018-01-18T08:58:04.413Z,73.06
2018-01-18T09:00:31.942Z,74.46
2018-01-18T09:02:59.480Z,73.91
2018-01-18T09:05:27.075Z,73.02
2018-01-18T09:07:54.601Z,71.96
2018-01-18T09:10:22.138Z,70.88
2018-01-18T09:12:49.674Z,70.07
2018-01-18T09:15:17.250Z,70.51
2018-01-18T09:17:44.844Z,70.47
2018-01-18T09:20:12.378Z,70.71
2018-01-18T09:22:39.970Z,71.49
2018-01-18T09:25:07.498Z,70.15
2018-01-18T09:27:35.130Z,68.85
2018-01-18T09:30:02.660Z,69.35
2018-01-18T09:32:30.190Z,69.48
2018-01-18T09:34:57.794Z,70.45
2018-01-18T09:37:25.324Z,69.26
2018-01-18T09:39:52.909Z,69.38
2018-01-18T09:42:20.501Z,70.75
2018-01-18T09:44:48.058Z,68.78
2018-01-18T09:47:15.654Z,70.35
2018-01-18T09:49:43.182Z,68.76
2018-01-18T09:52:10.769Z,68.99
2018-01-18T09:54:38.298Z,68.68
2018-01-18T09:57:05.931Z,68.88
2018-01-18T09:59:33.470Z,69.24
2018-01-18T10:02:01.007Z,69.25
2018-01-18T10:04:28.549Z,69.48
2018-01-18T10:06:56.074Z,68.94
2018-01-18T10:09:23.610Z,68.40
2018-01-18T10:11:51.150Z,68.70
2018-01-18T10:14:18.730Z,68.22
2018-01-18T10:16:46.315Z,67.65
2018-01-18T10:19:13.846Z,68.81
2018-01-18T10:21:41.390Z,67.87
2018-01-18T10:24:08.926Z,68.83
2018-01-18T10:26:36.462Z,67.92
2018-01-18T10:29:04.051Z,68.50
2018-01-18T10:31:31.665Z,68.69
2018-01-18T10:33:59.251Z,68.03
2018-01-18T10:36:26.782Z,67.20
2018-01-18T10:38:54.444Z,67.16
2018-01-18T10:41:21.976Z,67.63
2018-01-18T10:43:49.514Z,67.59
2018-01-18T10:46:17.046Z,68.78
2018-01-18T10:48:44.650Z,67.69
2018-01-18T10:51:12.251Z,69.15
2018-01-18T10:53:39.777Z,67.56
2018-01-18T10:56:07.313Z,67.47
2018-01-18T10:58:34.894Z,67.23
2018-01-18T11:01:02.495Z,66.75
2018-01-18T11:03:30.082Z,66.88
2018-01-18T11:05:57.670Z,66.83
2018-01-18T11:08:25.282Z,67.97
2018-01-18T11:10:52.810Z,65.86
2018-01-18T11:13:20.350Z,65.72
2018-01-18T11:15:47.947Z,65.65
2018-01-18T11:18:15.551Z,65.56
2018-01-18T11:20:43.087Z,62.65
2018-01-18T11:23:10.662Z,60.61
2018-01-18T11:25:38.247Z,60.74
2018-01-18T11:28:08.258Z,60.49
2018-01-18T11:30:35.902Z,60.07
2018-01-18T11:33:03.430Z,58.89
2018-01-18T11:35:30.969Z,58.29
2018-01-18T11:37:58.563Z,56.20
2018-01-18T11:40:26.225Z,56.92
2018-01-18T11:42:53.751Z,56.51
2018-01-18T11:45:21.288Z,56.06
2018-01-18T11:47:48.889Z,55.48
2018-01-18T11:50:16.421Z,55.50
2018-01-18T11:52:44.020Z,57.26
2018-01-18T11:55:11.602Z,58.76
2018-01-18T11:57:39.194Z,60.81
2018-01-18T12:00:06.759Z,60.97
2018-01-18T12:02:34.286Z,61.91
2018-01-18T12:05:01.921Z,62.44
2018-01-18T12:07:29.517Z,62.44
2018-01-18T12:09:57.059Z,62.27
2018-01-18T12:12:24.595Z,62.40
2018-01-18T12:14:52.129Z,62.01
2018-01-18T12:17:19.702Z,61.82
2018-01-18T12:19:47.234Z,61.03
2018-01-18T12:22:14.763Z,61.12
2018-01-18T12:24:42.390Z,61.37
2018-01-18T12:27:09.918Z,61.62
2018-01-18T12:29:37.519Z,61.25
2018-01-18T12:32:05.110Z,61.56
2018-01-18T12:34:32.749Z,61.88
2018-01-18T12:37:00.342Z,61.59
2018-01-18T12:39:27.877Z,61.78
2018-01-18T12:41:55.464Z,62.28
2018-01-18T12:44:22.999Z,62.33
2018-01-18T12:46:50.635Z,62.17
2018-01-18T12:49:18.161Z,61.86
2018-01-18T12:51:45.799Z,63.16
2018-01-18T12:54:13.321Z,61.94
2018-01-18T12:56:40.854Z,62.71
2018-01-18T12:59:08.390Z,62.77
2018-01-18T13:01:35.990Z,62.10
2018-01-18T13:04:03.594Z,63.22
2018-01-18T13:06:31.122Z,63.29
2018-01-18T13:08:58.694Z,63.33
2018-01-18T13:11:26.224Z,63.46
2018-01-18T13:13:53.801Z,63.97
2018-01-18T13:16:21.343Z,64.36
2018-01-18T13:18:48.874Z,64.64
2018-01-18T13:21:16.473Z,64.94
2018-01-18T13:23:44.018Z,64.32
2018-01-18T13:26:11.651Z,64.09
2018-01-18T13:28:39.246Z,64.59
2018-01-18T13:31:06.838Z,64.71
2018-01-18T13:33:34.434Z,65.10
2018-01-18T13:36:02.041Z,65.10
2018-01-18T13:38:29.643Z,65.10
2018-01-18T13:40:57.210Z,65.29
2018-01-18T13:43:24.790Z,65.61
2018-01-18T13:45:52.317Z,65.48
2018-01-18T13:48:19.854Z,65.32
2018-01-18T13:50:47.387Z,65.28
2018-01-18T13:53:14.921Z,65.15
2018-01-18T13:55:42.462Z,66.06
2018-01-18T13:58:10.004Z,65.90
2018-01-18T14:00:37.574Z,66.86
2018-01-18T14:03:05.175Z,67.25
2018-01-18T14:05:32.706Z,66.96
2018-01-18T14:08:00.245Z,66.71
2018-01-18T14:10:27.770Z,67.20
2018-01-18T14:12:55.310Z,67.06
2018-01-18T14:15:22.924Z,66.91
2018-01-18T14:17:50.514Z,67.54
2018-01-18T14:20:18.102Z,68.12
2018-01-18T14:22:45.686Z,68.05
2018-01-18T14:25:13.221Z,68.34
2018-01-18T14:27:40.758Z,68.36
2018-01-18T14:30:08.362Z,68.51
2018-01-18T14:32:35.947Z,68.44
2018-01-18T14:35:03.516Z,68.77
2018-01-18T14:37:31.110Z,68.77
2018-01-18T14:39:58.658Z,68.37
2018-01-18T14:42:26.189Z,68.90
2018-01-18T14:44:53.778Z,68.33
2018-01-18T14:47:21.370Z,69.28
2018-01-18T14:49:48.916Z,69.21
2018-01-18T14:52:16.546Z,69.28
2018-01-18T14:54:44.164Z,70.04
2018-01-18T14:57:11.704Z,69.87
2018-01-18T14:59:39.249Z,69.69
2018-01-18T15:02:06.769Z,69.55
2018-01-18T15:04:34.309Z,69.84
2018-01-18T15:07:01.837Z,69.28
2018-01-18T15:09:30.241Z,69.42
2018-01-18T15:11:57.761Z,70.25
2018-01-18T15:14:25.345Z,70.02
2018-01-18T15:16:52.882Z,70.18
2018-01-18T15:19:20.413Z,70.74
2018-01-18T15:21:47.958Z,70.80
2018-01-18T15:24:15.485Z,70.93
2018-01-18T15:26:43.063Z,70.97
2018-01-18T15:29:10.658Z,71.12
2018-01-18T15:31:38.260Z,71.20
2018-01-18T15:34:05.854Z,71.46
2018-01-18T15:36:33.436Z,71.28
2018-01-18T15:39:00.983Z,71.75
2018-01-18T15:41:28.591Z,71.40
2018-01-18T15:43:56.166Z,72.04
2018-01-18T15:46:23.755Z,72.59
2018-01-18T15:48:51.349Z,72.46
2018-01-18T15:51:18.947Z,72.54
2018-01-18T15:53:46.482Z,72.46
2018-01-18T15:56:14.022Z,72.05
2018-01-18T15:58:41.558Z,71.80
2018-01-18T16:01:09.129Z,72.22
2018-01-18T16:03:36.664Z,72.13
2018-01-18T16:06:04.194Z,71.94
2018-01-18T16:08:31.786Z,71.85
2018-01-18T16:10:59.318Z,71.41
2018-01-18T16:13:26.863Z,70.83
2018-01-18T16:15:54.447Z,70.90
2018-01-18T16:18:22.022Z,70.27
2018-01-18T16:20:49.550Z,70.80
2018-01-18T16:23:17.077Z,70.58
2018-01-18T16:25:44.682Z,70.35
2018-01-18T16:28:12.219Z,70.42
2018-01-18T16:30:39.759Z,70.63
2018-01-18T16:33:07.298Z,70.57
2018-01-18T16:35:34.837Z,70.89
2018-01-18T16:38:02.438Z,71.27
2018-01-18T16:40:29.970Z,71.32
2018-01-18T16:42:57.514Z,71.32
2018-01-18T16:45:25.106Z,71.21
2018-01-18T16:47:52.677Z,71.00
2018-01-18T16:50:20.278Z,70.80
2018-01-18T16:52:47.874Z,71.33
2018-01-18T16:55:15.421Z,71.44
2018-01-18T17:00:09.987Z,71.46
2018-01-18T17:02:37.522Z,71.05
2018-01-18T17:05:05.049Z,70.93
2018-01-18T17:07:32.597Z,70.75
2018-01-18T17:10:00.190Z,71.50
2018-01-18T17:12:27.795Z,70.97
2018-01-18T17:14:55.387Z,70.97
2018-01-18T17:17:22.969Z,71.24
2018-01-18T17:19:50.559Z,70.87
2018-01-18T17:22:18.131Z,70.45
2018-01-18T17:24:45.730Z,70.96
2018-01-18T17:27:13.257Z,71.20
2018-01-18T17:29:40.810Z,70.58
2018-01-18T17:32:08.390Z,70.91
2018-01-18T17:34:35.966Z,70.59
2018-01-18T17:37:03.499Z,70.29
2018-01-18T17:39:31.045Z,70.08
2018-01-18T17:41:58.594Z,70.46
2018-01-18T17:44:26.127Z,69.66
2018-01-18T17:46:53.674Z,70.33
2018-01-18T17:49:21.202Z,70.50
2018-01-18T17:51:48.778Z,70.27
2018-01-18T17:54:16.371Z,70.53
2018-01-18T17:56:43.910Z,71.03
2018-01-18T17:59:11.461Z,71.04
2018-01-18T18:01:39.050Z,71.27
2018-01-18T18:04:06.589Z,70.66
2018-01-18T18:06:34.124Z,70.08
2018-01-18T18:09:01.732Z,70.30
2018-01-18T18:11:29.262Z,70.22
2018-01-18T18:13:56.796Z,70.48
2018-01-18T18:16:24.329Z,70.15
2018-01-18T18:18:51.870Z,70.15
2018-01-18T18:21:19.401Z,70.20
2018-01-18T18:23:46.935Z,70.00
2018-01-18T18:26:14.521Z,70.41
2018-01-18T18:28:42.142Z,70.37
2018-01-18T18:31:09.660Z,70.94
2018-01-18T18:33:37.256Z,70.47
2018-01-18T18:36:04.786Z,70.51
2018-01-18T18:38:32.466Z,70.62
2018-01-18T18:41:00.034Z,70.64
2018-01-18T18:43:27.571Z,71.63
2018-01-18T18:45:55.182Z,71.06
2018-01-18T18:48:22.718Z,71.30
2018-01-18T18:50:50.326Z,71.19
2018-01-18T18:53:17.866Z,71.46
2018-01-18T18:55:45.408Z,72.17
2018-01-18T18:58:13.006Z,72.28
2018-01-18T19:00:40.546Z,72.75
2018-01-18T19:03:08.126Z,72.94
2018-01-18T19:05:35.662Z,73.07
2018-01-18T19:08:03.197Z,73.97
2018-01-18T19:10:30.807Z,73.89
2018-01-18T19:12:58.347Z,74.37
2018-01-18T19:15:25.890Z,74.61
2018-01-18T19:17:53.431Z,74.60
2018-01-18T19:20:21.074Z,74.65
2018-01-18T19:22:48.618Z,73.62
2018-01-18T19:25:16.154Z,73.09
2018-01-18T19:27:43.759Z,72.45
2018-01-18T19:30:11.302Z,72.55
2018-01-18T19:32:38.890Z,72.61
2018-01-18T19:35:06.464Z,72.69
2018-01-18T19:37:34.082Z,72.56
2018-01-18T19:40:01.689Z,72.31
2018-01-18T19:42:29.228Z,71.82
2018-01-18T19:44:56.774Z,71.76
2018-01-18T19:47:24.362Z,71.42
2018-01-18T19:49:52.781Z,71.76
2018-01-18T19:52:20.320Z,71.89
2018-01-18T19:54:47.897Z,71.77
2018-01-18T19:57:15.516Z,71.55
2018-01-18T19:59:43.110Z,71.89
2018-01-18T20:02:10.726Z,72.45
2018-01-18T20:04:38.258Z,72.36
2018-01-18T20:07:05.829Z,72.53
2018-01-18T20:09:33.362Z,72.81
2018-01-18T20:12:00.958Z,72.85
2018-01-18T20:14:28.497Z,73.75
2018-01-18T20:16:56.030Z,73.39
2018-01-18T20:19:23.654Z,73.32
2018-01-18T20:21:51.189Z,72.38
2018-01-18T20:24:18.846Z,71.52
2018-01-18T20:26:46.437Z,71.90
2018-01-18T20:29:13.966Z,70.46
2018-01-18T20:31:41.563Z,71.31
2018-01-18T20:34:09.162Z,71.53
2018-01-18T20:36:36.710Z,71.73
2018-01-18T20:39:04.326Z,71.53
2018-01-18T20:41:31.933Z,71.49
2018-01-18T20:43:59.531Z,72.29
2018-01-18T20:46:27.115Z,72.34
2018-01-18T20:48:54.658Z,72.40
2018-01-18T20:51:22.185Z,72.38
2018-01-18T20:53:49.796Z,72.40
2018-01-18T20:56:17.329Z,71.94
2018-01-18T20:58:44.905Z,71.88
2018-01-18T21:01:12.503Z,71.72
2018-01-18T21:03:40.098Z,72.07
2018-01-18T21:06:07.637Z,71.22
2018-01-18T21:08:35.173Z,71.20
2018-01-18T21:11:02.713Z,71.81
2018-01-18T21:13:30.245Z,72.10
2018-01-18T21:15:57.830Z,72.28
2018-01-18T21:18:25.371Z,72.53
2018-01-18T21:20:52.929Z,72.72
2018-01-18T21:23:20.474Z,73.22
2018-01-18T21:25:48.007Z,73.08
2018-01-18T21:28:15.602Z,73.05
2018-01-18T21:30:43.134Z,73.64
2018-01-18T21:33:10.786Z,74.09
2018-01-18T21:35:38.390Z,74.41
2018-01-18T21:38:05.926Z,74.55
2018-01-18T21:40:33.466Z,75.28
2018-01-18T21:43:01.069Z,75.71
2018-01-18T21:45:28.610Z,76.16
2018-01-18T21:47:56.146Z,75.66
2018-01-18T21:50:23.726Z,75.78
2018-01-18T21:52:51.266Z,75.40
2018-01-18T21:55:18.813Z,74.76
2018-01-18T21:57:46.354Z,74.65
2018-01-18T22:00:14.006Z,75.20
2018-01-18T22:02:41.545Z,75.67
2018-01-18T22:05:09.078Z,75.90
2018-01-18T22:07:36.649Z,75.16
2018-01-18T22:10:04.182Z,74.98
2018-01-18T22:12:31.709Z,74.95
2018-01-18T22:14:59.252Z,74.87
2018-01-18T22:17:26.781Z,75.62
2018-01-18T22:19:54.317Z,75.92
2018-01-18T22:22:21.854Z,76.18
2018-01-18T22:24:49.439Z,76.50
2018-01-18T22:27:16.969Z,77.83
2018-01-18T22:29:44.494Z,77.79
2018-01-18T22:32:12.031Z,77.69
2018-01-18T22:34:39.558Z,77.25
2018-01-18T22:37:07.093Z,77.41
2018-01-18T22:39:34.622Z,78.08
2018-01-18T22:42:02.219Z,78.21
2018-01-18T22:44:29.753Z,78.60
2018-01-18T22:46:57.289Z,78.84
2018-01-18T22:49:24.834Z,79.22
2018-01-18T22:51:52.378Z,79.28
2018-01-18T22:54:19.926Z,79.78
2018-01-18T22:56:47.458Z,79.77
2018-01-18T22:59:15.030Z,80.24
2018-01-18T23:01:42.579Z,80.84
2018-01-18T23:04:10.123Z,81.38
2018-01-18T23:06:37.666Z,81.35
2018-01-18T23:09:05.251Z,81.51
2018-01-18T23:11:32.811Z,81.65
2018-01-18T23:14:00.355Z,81.91
2018-01-18T23:16:27.969Z,82.12
2018-01-18T23:18:55.497Z,82.18
2018-01-18T23:21:23.034Z,81.73
2018-01-18T23:23:50.591Z,81.60
2018-01-18T23:26:18.127Z,81.78
2018-01-18T23:28:45.736Z,81.92
2018-01-18T23:31:13.282Z,82.11
2018-01-18T23:33:40.926Z,82.18
2018-01-18T23:36:08.527Z,81.83
2018-01-18T23:38:36.062Z,81.33
2018-01-18T23:41:03.670Z,81.18
2018-01-18T23:43:31.206Z,81.20
2018-01-18T23:45:58.754Z,81.01
2018-01-18T23:48:26.350Z,80.78
2018-01-18T23:50:53.929Z,80.06
2018-01-18T23:53:21.465Z,79.77
2018-01-18T23:55:49.002Z,79.82
2018-01-18T23:58:16.603Z,79.89
